LFMT/MPL METAR and TAF weather

Enter ICAO airport designator
Station Type Date Time Source
LFMT METAR 2021/05/11 22:30 UTC NOAA

LFMT 112230Z AUTO 29008KT CAVOK 13/05 Q1017 NOSIG


Station Type Date Time Source
LFMT Decoded METAR 2021/05/11 22:30 UTC NOAA

Montpellier, France (LFMT) 43-35N 003-58E 6M
May 11, 2021 - 06:30 PM EDT / 2021.05.11 2230 UTC
Wind: from the WNW (290 degrees) at 9 MPH (8 KT):0
Visibility: greater than 7 mile(s):0
Temperature: 55 F (13 C)
Dew Point: 41 F (5 C)
Relative Humidity: 58%
Pressure (altimeter): 30.03 in. Hg (1017 hPa)
ob: LFMT 112230Z AUTO 29008KT CAVOK 13/05 Q1017 NOSIG
cycle: 22

Station Type Date Time Source
LFMT TAF 2021/05/11 21:57 UTC NOAA

TAF
AMD TAF
AMD LFMT 110049Z 1021/1121 15020KT 9999 BKN007 BKN020 PROB30
TEMPO 1100/1102 TSRA BKN008 BKN020CB
TEMPO 1100/1107 SHRA BKN008 BKN030TCU
BECMG 1107/1109 28015KT 9999 SCT030
BECMG 1110/1112 30020G30KT CAVOK

Example: see airport list